Time;durP1;ratioP1;P1;durP2;ratioP2;P2;SDS_P1;SDS_P2;PMS_P1;PMS_P2;Temp;Humidity;BMP_temperature;BMP_pressure;BME280_temperature;BME280_humidity;BME280_pressure;Samples;Min_cycle;Max_cycle;Signal;HPM_P1;HPM_P2
2022/01/21 00:00:36;;;;;;;0.27;0.27;;;;;;;;;;5147261;27;20193;-71
2022/01/21 00:03:03;;;;;;;0.27;0.27;;;;;;;;;;5147606;27;20419;-70
2022/01/21 00:05:31;;;;;;;0.20;0.20;;;;;;;;;;5147562;27;20262;-71
2022/01/21 00:07:57;;;;;;;0.30;0.30;;;;;;;;;;5147186;27;20242;-71
2022/01/21 00:10:24;;;;;;;0.23;0.23;;;;;;;;;;5146787;27;20229;-70
2022/01/21 00:12:52;;;;;;;0.30;0.30;;;;;;;;;;5146852;27;20277;-70
2022/01/21 00:15:19;;;;;;;0.30;0.30;;;;;;;;;;5147052;27;20208;-71
2022/01/21 00:17:45;;;;;;;0.30;0.30;;;;;;;;;;5146884;27;20209;-70
2022/01/21 00:31:11;;;;;;;0.20;0.20;;;;;;;;;;5146723;27;20518;-71
2022/01/21 00:33:37;;;;;;;0.30;0.30;;;;;;;;;;5146557;27;20260;-71
2022/01/21 00:36:05;;;;;;;0.20;0.20;;;;;;;;;;5147009;27;20204;-70
2022/01/21 00:38:33;;;;;;;0.30;0.30;;;;;;;;;;5146960;27;20503;-71
2022/01/21 00:41:03;;;;;;;0.23;0.23;;;;;;;;;;5146395;27;20201;-70
2022/01/21 00:43:31;;;;;;;0.30;0.30;;;;;;;;;;5146461;27;20276;-70
2022/01/21 00:45:58;;;;;;;0.30;0.30;;;;;;;;;;5146570;27;20366;-70
2022/01/21 00:48:24;;;;;;;0.30;0.30;;;;;;;;;;5146571;27;20530;-71
2022/01/21 00:50:50;;;;;;;0.30;0.30;;;;;;;;;;5146348;27;20262;-70
2022/01/21 00:53:17;;;;;;;0.20;0.20;;;;;;;;;;5146441;27;20189;-70
2022/01/21 00:55:45;;;;;;;0.30;0.30;;;;;;;;;;5146106;27;20201;-70
2022/01/21 00:58:11;;;;;;;0.23;0.23;;;;;;;;;;5146333;27;20268;-70
2022/01/21 01:00:37;;;;;;;0.20;0.20;;;;;;;;;;5145993;27;20272;-70
2022/01/21 01:03:04;;;;;;;0.20;0.20;;;;;;;;;;5146476;27;20504;-71
2022/01/21 01:05:31;;;;;;;0.30;0.30;;;;;;;;;;5146364;27;20245;-71
2022/01/21 01:07:59;;;;;;;0.30;0.30;;;;;;;;;;5145928;27;20208;-71
2022/01/21 01:10:39;;;;;;;0.27;0.27;;;;;;;;;;5146158;27;20269;-70
2022/01/21 01:21:16;;;;;;;0.30;0.30;;;;;;;;;;5145847;27;20241;-70
2022/01/21 01:24:02;;;;;;;0.30;0.30;;;;;;;;;;5145816;27;20202;-71
2022/01/21 01:29:14;;;;;;;0.20;0.20;;;;;;;;;;5145656;27;20205;-71
2022/01/21 01:31:40;;;;;;;0.30;0.30;;;;;;;;;;5145628;27;20204;-70
2022/01/21 01:34:06;;;;;;;0.20;0.20;;;;;;;;;;5145410;27;20246;-71
2022/01/21 01:36:33;;;;;;;0.20;0.20;;;;;;;;;;5145770;27;20203;-70
2022/01/21 01:39:08;;;;;;;1.03;1.03;;;;;;;;;;5145688;27;20561;-70
2022/01/21 01:41:38;;;;;;;0.30;0.30;;;;;;;;;;5145639;27;20413;-69
2022/01/21 01:49:36;;;;;;;0.23;0.23;;;;;;;;;;5145296;27;20405;-70
2022/01/21 01:52:03;;;;;;;0.30;0.30;;;;;;;;;;5145432;27;20208;-70
2022/01/21 01:54:31;;;;;;;0.30;0.30;;;;;;;;;;5144196;27;20212;-70
2022/01/21 01:56:58;;;;;;;0.20;0.20;;;;;;;;;;5145037;27;20205;-70
2022/01/21 01:59:25;;;;;;;0.30;0.30;;;;;;;;;;5145221;27;20204;-71
2022/01/21 02:01:54;;;;;;;0.30;0.30;;;;;;;;;;5145461;27;20246;-71
2022/01/21 02:04:21;;;;;;;0.30;0.30;;;;;;;;;;5144923;27;20209;-70
2022/01/21 02:06:48;;;;;;;0.23;0.23;;;;;;;;;;5145232;27;20609;-70
2022/01/21 02:09:14;;;;;;;0.30;0.30;;;;;;;;;;5144702;27;20270;-70
2022/01/21 02:11:41;;;;;;;0.30;0.30;;;;;;;;;;5145034;27;20238;-70
2022/01/21 02:14:11;;;;;;;0.20;0.20;;;;;;;;;;5144876;27;20199;-70
2022/01/21 02:16:54;;;;;;;0.20;0.20;;;;;;;;;;5145185;27;20504;-70
2022/01/21 02:22:07;;;;;;;0.20;0.20;;;;;;;;;;5144369;27;20199;-71
2022/01/21 02:24:46;;;;;;;0.23;0.23;;;;;;;;;;5144848;27;20401;-70
2022/01/21 02:27:12;;;;;;;0.20;0.20;;;;;;;;;;5144548;27;20216;-71
2022/01/21 02:29:45;;;;;;;0.30;0.30;;;;;;;;;;5144608;27;20228;-70
2022/01/21 02:32:12;;;;;;;0.20;0.20;;;;;;;;;;5144425;27;20189;-70
2022/01/21 02:34:38;;;;;;;0.30;0.30;;;;;;;;;;5144361;27;20208;-70
2022/01/21 02:37:05;;;;;;;5.37;4.87;;;;;;;;;;5143244;27;20193;-70
2022/01/21 02:39:32;;;;;;;0.20;0.20;;;;;;;;;;5139173;27;20512;-70
2022/01/21 02:41:59;;;;;;;0.20;0.20;;;;;;;;;;5144620;27;20208;-70
2022/01/21 02:44:25;;;;;;;0.30;0.30;;;;;;;;;;5144583;27;20201;-70
2022/01/21 02:46:55;;;;;;;0.30;0.30;;;;;;;;;;5144145;27;20276;-71
2022/01/21 02:49:22;;;;;;;0.27;0.27;;;;;;;;;;5144027;27;20224;-70
2022/01/21 02:51:49;;;;;;;0.27;0.27;;;;;;;;;;5144584;27;20201;-71
2022/01/21 02:54:15;;;;;;;0.30;0.30;;;;;;;;;;5144382;27;20387;-71
2022/01/21 02:56:43;;;;;;;0.30;0.30;;;;;;;;;;5144019;27;20212;-70
2022/01/21 02:59:10;;;;;;;0.20;0.20;;;;;;;;;;5144220;27;20517;-70
2022/01/21 03:01:37;;;;;;;0.30;0.30;;;;;;;;;;5144162;27;20257;-71
2022/01/21 03:04:03;;;;;;;0.30;0.30;;;;;;;;;;5143914;27;20237;-70
2022/01/21 03:06:30;;;;;;;0.30;0.30;;;;;;;;;;5144077;27;20201;-71
2022/01/21 03:08:58;;;;;;;0.20;0.20;;;;;;;;;;5143796;27;20258;-70
2022/01/21 03:11:25;;;;;;;0.50;0.50;;;;;;;;;;5143880;27;20248;-70
2022/01/21 03:13:53;;;;;;;0.30;0.30;;;;;;;;;;5124720;27;20197;-71
2022/01/21 03:16:19;;;;;;;0.23;0.23;;;;;;;;;;5123216;28;20250;-69
2022/01/21 03:18:45;;;;;;;0.30;0.30;;;;;;;;;;5123272;28;20212;-70
2022/01/21 03:21:16;;;;;;;0.30;0.30;;;;;;;;;;5123504;28;20256;-71
2022/01/21 03:23:43;;;;;;;10.10;9.43;;;;;;;;;;5123240;28;20210;-70
2022/01/21 03:26:09;;;;;;;0.30;0.30;;;;;;;;;;5123495;28;20208;-70
2022/01/21 03:28:35;;;;;;;0.30;0.30;;;;;;;;;;5123379;28;20205;-70
2022/01/21 03:31:03;;;;;;;0.30;0.30;;;;;;;;;;5123360;28;20238;-71
2022/01/21 03:33:30;;;;;;;4.17;2.77;;;;;;;;;;5123062;28;20512;-69
2022/01/21 03:35:56;;;;;;;0.30;0.30;;;;;;;;;;5123130;28;20304;-71
2022/01/21 03:38:26;;;;;;;0.23;0.23;;;;;;;;;;5141045;28;20232;-71
2022/01/21 03:40:52;;;;;;;0.30;0.30;;;;;;;;;;5143658;27;20204;-71
2022/01/21 03:43:19;;;;;;;0.20;0.20;;;;;;;;;;5143689;27;20201;-70
2022/01/21 03:45:45;;;;;;;0.23;0.23;;;;;;;;;;5143863;27;20266;-70
2022/01/21 03:48:14;;;;;;;0.30;0.30;;;;;;;;;;5143690;27;20208;-71
2022/01/21 03:50:41;;;;;;;0.30;0.30;;;;;;;;;;5143703;27;20225;-70
2022/01/21 03:53:07;;;;;;;0.30;0.30;;;;;;;;;;5143874;27;20208;-70
2022/01/21 03:55:34;;;;;;;0.30;0.30;;;;;;;;;;5143498;27;20238;-70
2022/01/21 03:58:01;;;;;;;0.27;0.27;;;;;;;;;;5143472;27;20208;-69
2022/01/21 04:00:29;;;;;;;0.30;0.30;;;;;;;;;;5143452;27;20198;-71
2022/01/21 04:02:56;;;;;;;0.30;0.30;;;;;;;;;;5143364;27;20222;-71
2022/01/21 04:05:24;;;;;;;0.30;0.30;;;;;;;;;;5143661;27;20211;-71
2022/01/21 04:07:50;;;;;;;0.30;0.30;;;;;;;;;;5143386;27;20221;-71
2022/01/21 04:10:16;;;;;;;0.30;0.30;;;;;;;;;;5143029;27;20533;-70
2022/01/21 04:12:42;;;;;;;0.30;0.30;;;;;;;;;;5143580;27;20274;-70
2022/01/21 04:15:09;;;;;;;0.23;0.23;;;;;;;;;;5143600;27;20202;-70
2022/01/21 04:17:36;;;;;;;0.30;0.30;;;;;;;;;;5145171;27;20254;-69
2022/01/21 04:20:02;;;;;;;0.30;0.30;;;;;;;;;;5147271;27;20209;-71
2022/01/21 04:22:29;;;;;;;0.30;0.30;;;;;;;;;;5146936;27;20208;-69
2022/01/21 04:24:56;;;;;;;0.30;0.30;;;;;;;;;;5146940;27;20208;-70
2022/01/21 04:27:22;;;;;;;0.30;0.30;;;;;;;;;;5146855;27;20208;-71
2022/01/21 04:29:49;;;;;;;0.30;0.30;;;;;;;;;;5146985;27;20202;-70
2022/01/21 04:32:16;;;;;;;0.30;0.30;;;;;;;;;;5147061;27;20201;-71
2022/01/21 04:34:42;;;;;;;0.30;0.30;;;;;;;;;;5147050;27;20204;-72
2022/01/21 04:37:11;;;;;;;0.30;0.30;;;;;;;;;;5146515;27;20242;-70
2022/01/21 04:39:45;;;;;;;0.27;0.27;;;;;;;;;;5146897;27;20201;-71
2022/01/21 04:47:42;;;;;;;0.30;0.30;;;;;;;;;;5146544;27;20245;-70
2022/01/21 04:50:12;;;;;;;0.30;0.30;;;;;;;;;;5146158;27;20258;-70
2022/01/21 04:52:39;;;;;;;0.30;0.30;;;;;;;;;;5135785;27;20210;-70
2022/01/21 04:55:07;;;;;;;0.30;0.30;;;;;;;;;;5125635;27;20227;-70
2022/01/21 04:57:33;;;;;;;0.30;0.30;;;;;;;;;;5125250;28;20202;-69
2022/01/21 04:59:59;;;;;;;0.30;0.30;;;;;;;;;;5125646;28;20212;-70
2022/01/21 05:02:27;;;;;;;0.30;0.30;;;;;;;;;;5125376;28;20210;-70
2022/01/21 05:04:54;;;;;;;0.30;0.30;;;;;;;;;;5125341;28;20210;-70
2022/01/21 05:07:21;;;;;;;0.30;0.30;;;;;;;;;;5125423;28;20209;-70
2022/01/21 05:09:47;;;;;;;0.30;0.30;;;;;;;;;;5125420;28;20232;-70
2022/01/21 05:12:19;;;;;;;0.30;0.30;;;;;;;;;;5125600;28;20283;-69
2022/01/21 05:14:51;;;;;;;0.30;0.30;;;;;;;;;;5125519;28;20194;-71
2022/01/21 05:17:18;;;;;;;0.30;0.30;;;;;;;;;;5124915;28;20284;-71
2022/01/21 05:19:45;;;;;;;0.30;0.30;;;;;;;;;;5125600;28;20296;-71
2022/01/21 05:22:11;;;;;;;0.30;0.30;;;;;;;;;;5125496;28;20238;-70
2022/01/21 05:24:38;;;;;;;0.23;0.23;;;;;;;;;;5125363;28;20243;-69
2022/01/21 05:27:06;;;;;;;0.30;0.30;;;;;;;;;;5125068;27;20509;-70
2022/01/21 05:29:34;;;;;;;0.30;0.30;;;;;;;;;;5124907;28;20212;-70
2022/01/21 05:32:00;;;;;;;0.30;0.30;;;;;;;;;;5124837;28;20244;-70
2022/01/21 05:34:27;;;;;;;0.30;0.30;;;;;;;;;;5125128;28;20202;-70
2022/01/21 05:36:53;;;;;;;0.23;0.23;;;;;;;;;;5130137;27;20200;-70
2022/01/21 05:39:20;;;;;;;0.30;0.30;;;;;;;;;;5145485;27;20204;-70
2022/01/21 05:41:49;;;;;;;0.30;0.30;;;;;;;;;;5145545;27;20200;-68
2022/01/21 05:46:22;;;;;;;0.30;0.30;;;;;;;;;;5145280;27;20219;-70
2022/01/21 05:47:04;;;;;;;0.30;0.30;;;;;;;;;;5145263;27;20181;-71
2022/01/21 05:49:32;;;;;;;0.30;0.30;;;;;;;;;;5145207;27;20201;-69
2022/01/21 05:52:04;;;;;;;0.30;0.30;;;;;;;;;;5145367;27;20221;-70
2022/01/21 05:54:30;;;;;;;0.37;0.37;;;;;;;;;;5145027;27;20196;-70
2022/01/21 05:56:57;;;;;;;0.30;0.30;;;;;;;;;;5145321;27;20205;-70
2022/01/21 05:59:23;;;;;;;5.60;5.27;;;;;;;;;;5144889;27;20208;-71
2022/01/21 06:01:49;;;;;;;0.30;0.30;;;;;;;;;;5145292;27;20285;-71
2022/01/21 06:04:17;;;;;;;0.30;0.30;;;;;;;;;;5144205;27;20210;-70
2022/01/21 06:06:43;;;;;;;0.30;0.30;;;;;;;;;;5144888;27;20261;-71
2022/01/21 06:09:09;;;;;;;0.33;0.33;;;;;;;;;;5144607;27;20289;-71
2022/01/21 06:11:36;;;;;;;0.30;0.30;;;;;;;;;;5144967;27;20274;-71
2022/01/21 06:14:03;;;;;;;0.30;0.30;;;;;;;;;;5144964;27;20430;-70
2022/01/21 06:16:29;;;;;;;0.30;0.30;;;;;;;;;;5144912;27;20205;-70
2022/01/21 06:18:56;;;;;;;0.30;0.30;;;;;;;;;;5144839;27;20413;-70
2022/01/21 06:21:24;;;;;;;0.30;0.30;;;;;;;;;;5144972;27;20197;-70
2022/01/21 06:23:50;;;;;;;0.30;0.30;;;;;;;;;;5144536;27;20201;-69
2022/01/21 06:26:16;;;;;;;0.30;0.30;;;;;;;;;;5144816;27;20208;-71
2022/01/21 06:28:43;;;;;;;0.30;0.30;;;;;;;;;;5144530;27;20208;-70
2022/01/21 06:31:09;;;;;;;0.30;0.30;;;;;;;;;;5144722;27;20595;-70
2022/01/21 06:33:35;;;;;;;2.60;2.50;;;;;;;;;;5132333;27;20226;-70
2022/01/21 06:36:01;;;;;;;0.30;0.30;;;;;;;;;;5141072;27;20201;-70
2022/01/21 06:38:29;;;;;;;0.40;0.40;;;;;;;;;;5144305;27;20250;-70
2022/01/21 06:40:55;;;;;;;0.40;0.40;;;;;;;;;;5144165;27;20261;-70
2022/01/21 06:43:22;;;;;;;0.30;0.30;;;;;;;;;;5144604;27;20204;-70
2022/01/21 06:45:48;;;;;;;0.30;0.30;;;;;;;;;;5144695;27;20201;-70
2022/01/21 06:48:14;;;;;;;0.30;0.30;;;;;;;;;;5144519;27;20410;-70
2022/01/21 06:50:42;;;;;;;0.40;0.40;;;;;;;;;;5144077;27;20399;-70
2022/01/21 06:53:08;;;;;;;0.30;0.30;;;;;;;;;;5144561;27;20228;-70
2022/01/21 06:55:36;;;;;;;0.30;0.30;;;;;;;;;;5144154;27;20258;-71
2022/01/21 06:58:03;;;;;;;0.30;0.30;;;;;;;;;;5144353;27;20203;-71
2022/01/21 07:00:29;;;;;;;0.30;0.30;;;;;;;;;;5143915;27;20242;-70
2022/01/21 07:02:55;;;;;;;0.30;0.30;;;;;;;;;;5134394;27;20482;-70
2022/01/21 07:05:25;;;;;;;0.30;0.30;;;;;;;;;;5129977;27;20253;-70
2022/01/21 07:07:51;;;;;;;0.30;0.30;;;;;;;;;;5143683;27;20272;-70
2022/01/21 07:10:18;;;;;;;0.30;0.30;;;;;;;;;;5127615;27;20221;-70
2022/01/21 07:12:46;;;;;;;0.30;0.30;;;;;;;;;;5123474;28;20401;-69
2022/01/21 07:15:15;;;;;;;0.30;0.30;;;;;;;;;;5140205;28;20204;-69
2022/01/21 07:17:42;;;;;;;0.30;0.30;;;;;;;;;;5128561;28;20213;-68
2022/01/21 07:20:09;;;;;;;0.30;0.30;;;;;;;;;;5134269;28;20212;-69
2022/01/21 07:22:35;;;;;;;0.30;0.30;;;;;;;;;;5127420;28;20200;-68
2022/01/21 07:25:02;;;;;;;0.23;0.23;;;;;;;;;;5132303;27;20208;-68
2022/01/21 07:27:28;;;;;;;0.30;0.30;;;;;;;;;;5131748;28;20227;-69
2022/01/21 07:29:55;;;;;;;0.20;0.20;;;;;;;;;;5128519;28;20563;-70
2022/01/21 07:32:22;;;;;;;0.30;0.30;;;;;;;;;;5128528;28;20612;-69
2022/01/21 07:34:48;;;;;;;0.77;0.77;;;;;;;;;;5139606;28;20204;-69
2022/01/21 07:37:14;;;;;;;0.20;0.20;;;;;;;;;;5135675;27;20198;-69
2022/01/21 07:39:41;;;;;;;0.30;0.30;;;;;;;;;;5128328;28;20201;-69
2022/01/21 07:42:07;;;;;;;0.30;0.30;;;;;;;;;;5142864;28;20296;-69
2022/01/21 07:44:33;;;;;;;0.30;0.30;;;;;;;;;;5131667;27;20202;-69
2022/01/21 07:47:01;;;;;;;0.30;0.30;;;;;;;;;;5123375;28;20265;-70
2022/01/21 07:49:27;;;;;;;0.30;0.30;;;;;;;;;;5126170;28;20525;-68
2022/01/21 07:51:54;;;;;;;0.30;0.30;;;;;;;;;;5131327;27;20445;-68
2022/01/21 07:54:20;;;;;;;3.80;3.23;;;;;;;;;;5126963;27;20202;-69
2022/01/21 07:56:46;;;;;;;0.40;0.40;;;;;;;;;;5126853;28;20202;-69
2022/01/21 07:59:13;;;;;;;0.30;0.30;;;;;;;;;;5127514;28;20251;-70
2022/01/21 08:01:40;;;;;;;0.30;0.30;;;;;;;;;;5131834;27;20193;-69
2022/01/21 08:04:08;;;;;;;0.30;0.30;;;;;;;;;;5136078;27;20548;-70
2022/01/21 08:06:35;;;;;;;0.37;0.37;;;;;;;;;;5129594;27;20248;-70
2022/01/21 08:09:01;;;;;;;0.30;0.30;;;;;;;;;;5137356;27;20448;-70
2022/01/21 08:11:28;;;;;;;0.30;0.30;;;;;;;;;;5135461;27;20221;-69
2022/01/21 08:13:54;;;;;;;0.30;0.30;;;;;;;;;;5147132;27;20399;-70
2022/01/21 08:16:21;;;;;;;0.30;0.30;;;;;;;;;;5131888;27;20209;-70
2022/01/21 08:18:48;;;;;;;0.27;0.27;;;;;;;;;;5128850;27;20212;-70
2022/01/21 08:21:18;;;;;;;0.30;0.30;;;;;;;;;;5139125;27;20212;-70
2022/01/21 08:23:45;;;;;;;0.30;0.30;;;;;;;;;;5136325;27;20240;-69
2022/01/21 08:26:11;;;;;;;0.30;0.30;;;;;;;;;;5138996;27;20275;-69
2022/01/21 08:28:37;;;;;;;0.30;0.30;;;;;;;;;;5146756;27;20216;-70
2022/01/21 08:31:04;;;;;;;0.30;0.30;;;;;;;;;;5146802;27;20201;-70
2022/01/21 08:33:30;;;;;;;0.30;0.30;;;;;;;;;;5137206;27;20207;-70
2022/01/21 08:35:56;;;;;;;0.30;0.30;;;;;;;;;;5141127;27;20208;-70
2022/01/21 08:38:24;;;;;;;0.30;0.30;;;;;;;;;;5134754;27;20422;-71
2022/01/21 08:40:50;;;;;;;0.27;0.27;;;;;;;;;;5141681;27;20520;-70
2022/01/21 08:43:17;;;;;;;0.27;0.27;;;;;;;;;;5127190;27;20190;-71
2022/01/21 08:45:43;;;;;;;0.30;0.30;;;;;;;;;;5130945;27;20449;-70
2022/01/21 08:48:11;;;;;;;0.30;0.30;;;;;;;;;;5128587;27;20216;-70
2022/01/21 08:50:37;;;;;;;0.30;0.30;;;;;;;;;;5137025;27;20217;-69
2022/01/21 08:53:36;;;;;;;0.30;0.30;;;;;;;;;;5130503;27;20548;-69
2022/01/21 08:55:58;;;;;;;0.50;0.50;;;;;;;;;;5145014;27;20208;-70
2022/01/21 08:58:25;;;;;;;0.30;0.30;;;;;;;;;;5133245;27;20255;-71
2022/01/21 09:00:51;;;;;;;0.30;0.30;;;;;;;;;;5135641;27;20211;-69
2022/01/21 09:03:18;;;;;;;0.30;0.30;;;;;;;;;;5134901;27;20255;-69
2022/01/21 09:05:48;;;;;;;0.20;0.20;;;;;;;;;;5127306;27;20213;-70
2022/01/21 09:08:15;;;;;;;0.20;0.20;;;;;;;;;;5130622;27;20405;-70
2022/01/21 09:10:42;;;;;;;0.20;0.20;;;;;;;;;;5132350;27;20259;-70
2022/01/21 09:13:10;;;;;;;0.20;0.20;;;;;;;;;;5133162;27;20223;-70
2022/01/21 09:15:37;;;;;;;0.20;0.20;;;;;;;;;;5141889;27;20205;-70
2022/01/21 09:18:04;;;;;;;0.20;0.20;;;;;;;;;;5128883;27;20213;-70
2022/01/21 09:20:31;;;;;;;0.20;0.20;;;;;;;;;;5128005;27;20250;-70
2022/01/21 09:22:58;;;;;;;0.20;0.20;;;;;;;;;;5126756;27;20224;-69
2022/01/21 09:25:24;;;;;;;0.20;0.20;;;;;;;;;;5125509;28;20502;-70
2022/01/21 09:27:51;;;;;;;0.20;0.20;;;;;;;;;;5125428;28;20506;-71
2022/01/21 09:30:19;;;;;;;0.20;0.20;;;;;;;;;;5125383;28;20227;-70
2022/01/21 09:32:48;;;;;;;0.20;0.20;;;;;;;;;;5127838;27;20242;-71
2022/01/21 09:35:15;;;;;;;0.20;0.20;;;;;;;;;;5145317;27;20203;-70
2022/01/21 09:37:41;;;;;;;0.20;0.20;;;;;;;;;;5128761;27;20268;-71
2022/01/21 09:40:09;;;;;;;0.20;0.20;;;;;;;;;;5132990;27;20329;-70
2022/01/21 09:42:36;;;;;;;0.10;0.10;;;;;;;;;;5125775;27;20249;-71
2022/01/21 09:45:08;;;;;;;0.10;0.10;;;;;;;;;;5129592;27;20205;-70
2022/01/21 09:47:45;;;;;;;0.20;0.20;;;;;;;;;;5130498;27;20215;-71
2022/01/21 09:50:12;;;;;;;0.10;0.10;;;;;;;;;;5137787;27;20199;-70
2022/01/21 09:52:41;;;;;;;0.13;0.13;;;;;;;;;;5138590;27;20561;-70
2022/01/21 09:55:07;;;;;;;0.10;0.10;;;;;;;;;;5131639;27;20205;-70
2022/01/21 09:57:35;;;;;;;0.10;0.10;;;;;;;;;;5131086;27;20240;-70
2022/01/21 10:00:04;;;;;;;0.20;0.20;;;;;;;;;;5134345;27;20198;-70
2022/01/21 10:02:31;;;;;;;0.20;0.20;;;;;;;;;;5129822;27;20206;-71
2022/01/21 10:05:00;;;;;;;0.10;0.10;;;;;;;;;;5139984;27;20211;-71
2022/01/21 10:07:28;;;;;;;0.13;0.13;;;;;;;;;;5135047;27;20217;-70
2022/01/21 10:09:54;;;;;;;0.10;0.10;;;;;;;;;;5136116;27;20588;-72
2022/01/21 10:12:22;;;;;;;0.10;0.10;;;;;;;;;;5134753;27;20232;-70
2022/01/21 10:14:49;;;;;;;0.10;0.10;;;;;;;;;;5132705;27;20226;-70
2022/01/21 10:17:16;;;;;;;0.10;0.10;;;;;;;;;;5127716;27;20202;-71
2022/01/21 10:19:45;;;;;;;0.10;0.10;;;;;;;;;;5129261;27;20200;-69
2022/01/21 10:22:16;;;;;;;0.10;0.10;;;;;;;;;;5138740;27;20499;-70
2022/01/21 10:24:51;;;;;;;0.10;0.10;;;;;;;;;;5123948;28;20207;-69
2022/01/21 10:27:22;;;;;;;0.10;0.10;;;;;;;;;;5124236;28;20217;-69
2022/01/21 10:29:49;;;;;;;0.10;0.10;;;;;;;;;;5127531;27;20194;-69
2022/01/21 10:32:15;;;;;;;0.10;0.10;;;;;;;;;;5133016;27;20331;-70
2022/01/21 10:34:43;;;;;;;0.10;0.10;;;;;;;;;;5134533;27;20208;-69
2022/01/21 10:37:25;;;;;;;0.10;0.10;;;;;;;;;;5137078;27;20208;-70
2022/01/21 10:39:55;;;;;;;0.10;0.10;;;;;;;;;;5125349;27;20208;-70
2022/01/21 10:42:23;;;;;;;0.10;0.10;;;;;;;;;;5124622;27;20551;-71
2022/01/21 10:44:50;;;;;;;0.10;0.10;;;;;;;;;;5125998;27;20528;-71
2022/01/21 10:47:17;;;;;;;0.10;0.10;;;;;;;;;;5132115;27;20228;-71
2022/01/21 10:49:44;;;;;;;0.10;0.10;;;;;;;;;;5125953;27;20208;-71
2022/01/21 10:52:11;;;;;;;0.10;0.10;;;;;;;;;;5143007;27;20387;-69
2022/01/21 10:54:43;;;;;;;0.10;0.10;;;;;;;;;;5143336;27;20336;-70
2022/01/21 10:57:12;;;;;;;0.10;0.10;;;;;;;;;;5137834;27;20233;-71
2022/01/21 10:59:45;;;;;;;0.10;0.10;;;;;;;;;;5143136;27;20496;-71
2022/01/21 11:02:13;;;;;;;0.10;0.10;;;;;;;;;;5140989;27;20510;-70
2022/01/21 11:04:40;;;;;;;0.20;0.20;;;;;;;;;;5143177;27;20569;-70
2022/01/21 11:07:06;;;;;;;0.10;0.10;;;;;;;;;;5123472;28;20261;-70
2022/01/21 11:09:37;;;;;;;0.10;0.10;;;;;;;;;;5123543;28;20311;-71
2022/01/21 11:12:09;;;;;;;0.10;0.10;;;;;;;;;;5143936;27;20190;-70
2022/01/21 11:14:36;;;;;;;0.10;0.10;;;;;;;;;;5143830;27;20209;-70
2022/01/21 11:17:06;;;;;;;0.10;0.10;;;;;;;;;;5123545;28;20192;-71
2022/01/21 11:19:34;;;;;;;0.10;0.10;;;;;;;;;;5124118;28;20384;-71
2022/01/21 11:22:04;;;;;;;0.10;0.10;;;;;;;;;;5134348;27;20246;-71
2022/01/21 11:24:30;;;;;;;0.10;0.10;;;;;;;;;;5138161;28;20378;-69
2022/01/21 11:27:12;;;;;;;0.10;0.10;;;;;;;;;;5130656;27;20202;-71
2022/01/21 11:29:39;;;;;;;0.10;0.10;;;;;;;;;;5145599;27;20294;-71
2022/01/21 11:32:06;;;;;;;0.10;0.10;;;;;;;;;;5143551;27;20233;-72
2022/01/21 11:34:32;;;;;;;0.10;0.10;;;;;;;;;;5144228;27;20630;-71
2022/01/21 11:36:59;;;;;;;0.10;0.10;;;;;;;;;;5131374;27;20267;-70
2022/01/21 11:39:26;;;;;;;0.10;0.10;;;;;;;;;;5134035;27;20234;-71
2022/01/21 11:41:52;;;;;;;0.10;0.10;;;;;;;;;;5136997;27;20271;-71
2022/01/21 11:44:21;;;;;;;0.10;0.10;;;;;;;;;;5134037;27;20234;-71
2022/01/21 11:47:00;;;;;;;0.20;0.20;;;;;;;;;;5145782;27;20202;-70
2022/01/21 11:49:27;;;;;;;0.10;0.10;;;;;;;;;;5134351;27;20487;-71
2022/01/21 11:52:08;;;;;;;0.10;0.10;;;;;;;;;;5138745;27;20202;-72
2022/01/21 11:54:36;;;;;;;0.10;0.10;;;;;;;;;;5142880;27;20190;-69
2022/01/21 11:57:05;;;;;;;0.10;0.10;;;;;;;;;;5130788;27;20197;-71
2022/01/21 11:59:41;;;;;;;0.10;0.10;;;;;;;;;;5126954;28;20202;-70
2022/01/21 12:02:19;;;;;;;0.10;0.10;;;;;;;;;;5127370;27;20196;-70
2022/01/21 12:04:47;;;;;;;0.17;0.17;;;;;;;;;;5127303;27;20197;-73
2022/01/21 12:07:28;;;;;;;0.10;0.10;;;;;;;;;;5132249;27;20273;-71
2022/01/21 12:09:56;;;;;;;0.10;0.10;;;;;;;;;;5136989;27;20239;-71
2022/01/21 12:12:22;;;;;;;0.20;0.20;;;;;;;;;;5135586;27;20211;-70
2022/01/21 12:14:55;;;;;;;0.10;0.10;;;;;;;;;;5129886;27;20208;-72
2022/01/21 12:17:40;;;;;;;0.13;0.13;;;;;;;;;;5128016;27;20212;-72
2022/01/21 12:20:07;;;;;;;0.10;0.10;;;;;;;;;;5143161;27;20227;-71
2022/01/21 12:22:33;;;;;;;0.10;0.10;;;;;;;;;;5131743;27;20229;-71
2022/01/21 12:25:05;;;;;;;0.10;0.10;;;;;;;;;;5133033;27;20512;-72
2022/01/21 12:27:31;;;;;;;0.17;0.17;;;;;;;;;;5129230;27;20227;-72
2022/01/21 12:30:16;;;;;;;0.20;0.20;;;;;;;;;;5131023;27;20526;-72
2022/01/21 12:32:55;;;;;;;0.20;0.20;;;;;;;;;;5138583;27;20223;-71
2022/01/21 12:35:21;;;;;;;0.10;0.10;;;;;;;;;;5139465;27;20524;-70
2022/01/21 12:39:05;;;;;;;0.10;0.10;;;;;;;;;;5132780;27;20210;-71
2022/01/21 12:40:53;;;;;;;0.20;0.20;;;;;;;;;;5127001;27;20212;-72
2022/01/21 12:43:42;;;;;;;0.20;0.20;;;;;;;;;;5126376;27;20257;-71
2022/01/21 12:46:11;;;;;;;0.10;0.10;;;;;;;;;;5137064;27;20209;-71
2022/01/21 12:48:39;;;;;;;0.17;0.17;;;;;;;;;;5142316;27;20203;-72
2022/01/21 12:51:14;;;;;;;0.20;0.20;;;;;;;;;;5144941;27;20487;-71
2022/01/21 12:55:55;;;;;;;0.20;0.20;;;;;;;;;;5146462;27;20399;-72
2022/01/21 12:56:29;;;;;;;0.20;0.20;;;;;;;;;;5145333;27;20202;-71
2022/01/21 12:58:57;;;;;;;0.20;0.20;;;;;;;;;;5130885;27;20198;-72
2022/01/21 13:01:24;;;;;;;0.10;0.10;;;;;;;;;;5135637;27;20204;-72
2022/01/21 13:03:54;;;;;;;0.20;0.20;;;;;;;;;;5134094;27;20199;-72
2022/01/21 13:06:24;;;;;;;0.20;0.20;;;;;;;;;;5137655;27;20491;-72
2022/01/21 13:09:00;;;;;;;0.10;0.10;;;;;;;;;;5133037;27;20253;-71
2022/01/21 13:11:28;;;;;;;0.10;0.10;;;;;;;;;;5141367;27;20265;-72
2022/01/21 13:14:02;;;;;;;0.20;0.20;;;;;;;;;;5132824;27;20276;-70
2022/01/21 13:16:30;;;;;;;0.20;0.20;;;;;;;;;;5136917;27;20222;-71
2022/01/21 13:19:02;;;;;;;0.20;0.20;;;;;;;;;;5127769;27;20586;-72
2022/01/21 13:21:29;;;;;;;0.20;0.20;;;;;;;;;;5132495;27;20499;-71
2022/01/21 13:23:57;;;;;;;0.20;0.20;;;;;;;;;;5140948;27;20476;-73
2022/01/21 13:26:24;;;;;;;0.20;0.20;;;;;;;;;;5137123;27;20203;-72
2022/01/21 13:28:58;;;;;;;0.20;0.20;;;;;;;;;;5141774;27;20204;-71
2022/01/21 13:31:25;;;;;;;0.17;0.17;;;;;;;;;;5125427;28;20204;-72
2022/01/21 13:33:52;;;;;;;0.20;0.20;;;;;;;;;;5126937;27;20232;-72
2022/01/21 13:36:40;;;;;;;0.20;0.20;;;;;;;;;;5131338;27;20206;-72
2022/01/21 13:39:09;;;;;;;0.20;0.20;;;;;;;;;;5128621;27;20264;-72
2022/01/21 13:41:46;;;;;;;0.20;0.20;;;;;;;;;;5133559;27;20273;-72
2022/01/21 13:44:13;;;;;;;0.20;0.20;;;;;;;;;;5132705;27;20199;-71
2022/01/21 13:46:40;;;;;;;0.20;0.20;;;;;;;;;;5124805;28;20264;-72
2022/01/21 13:49:06;;;;;;;0.20;0.20;;;;;;;;;;5123304;28;20203;-71
2022/01/21 13:51:33;;;;;;;0.20;0.20;;;;;;;;;;5124226;28;20322;-72
2022/01/21 13:54:05;;;;;;;0.20;0.20;;;;;;;;;;5124712;28;20406;-73
2022/01/21 13:56:32;;;;;;;0.20;0.20;;;;;;;;;;5124817;28;20456;-72
2022/01/21 13:58:59;;;;;;;0.20;0.20;;;;;;;;;;5124606;28;20203;-73
2022/01/21 14:01:28;;;;;;;0.20;0.20;;;;;;;;;;5124624;28;20195;-73
2022/01/21 14:03:57;;;;;;;0.20;0.20;;;;;;;;;;5124448;28;20206;-73
2022/01/21 14:06:24;;;;;;;0.20;0.20;;;;;;;;;;5124529;28;20404;-73
2022/01/21 14:08:52;;;;;;;0.20;0.20;;;;;;;;;;5134006;27;20290;-71
2022/01/21 14:11:25;;;;;;;0.20;0.20;;;;;;;;;;5145239;27;20202;-72
2022/01/21 14:13:59;;;;;;;0.20;0.20;;;;;;;;;;5145155;27;20217;-73
2022/01/21 14:16:27;;;;;;;0.13;0.13;;;;;;;;;;5144735;27;20264;-73
2022/01/21 14:18:54;;;;;;;0.20;0.20;;;;;;;;;;5144785;27;20461;-72
2022/01/21 14:21:23;;;;;;;0.20;0.20;;;;;;;;;;5135174;27;20203;-71
2022/01/21 14:23:50;;;;;;;0.20;0.20;;;;;;;;;;5124291;28;20203;-72
2022/01/21 14:26:18;;;;;;;0.20;0.20;;;;;;;;;;5128446;27;20240;-72
2022/01/21 14:28:48;;;;;;;0.10;0.10;;;;;;;;;;5128012;27;20199;-72
2022/01/21 14:31:28;;;;;;;0.20;0.20;;;;;;;;;;5132812;27;20201;-70
2022/01/21 14:33:55;;;;;;;0.20;0.20;;;;;;;;;;5144375;27;20231;-70
2022/01/21 14:36:22;;;;;;;0.20;0.20;;;;;;;;;;5138538;27;20218;-71
2022/01/21 14:38:49;;;;;;;0.20;0.20;;;;;;;;;;5129151;27;20205;-70
2022/01/21 14:41:17;;;;;;;0.20;0.20;;;;;;;;;;5128397;27;20234;-70
2022/01/21 14:43:51;;;;;;;0.20;0.20;;;;;;;;;;5126928;27;20487;-71
2022/01/21 14:46:24;;;;;;;0.20;0.20;;;;;;;;;;5124053;28;20183;-70
2022/01/21 14:48:56;;;;;;;0.10;0.10;;;;;;;;;;5126632;27;20186;-69
2022/01/21 14:51:31;;;;;;;0.20;0.20;;;;;;;;;;5144480;27;20318;-72
2022/01/21 14:54:08;;;;;;;0.20;0.20;;;;;;;;;;5143922;27;20286;-72
2022/01/21 14:56:35;;;;;;;0.20;0.20;;;;;;;;;;5141998;27;20552;-72
2022/01/21 14:59:12;;;;;;;0.20;0.20;;;;;;;;;;5125890;27;20200;-70
2022/01/21 15:01:53;;;;;;;0.20;0.20;;;;;;;;;;5137813;27;20231;-71
2022/01/21 15:04:20;;;;;;;0.20;0.20;;;;;;;;;;5144097;27;20216;-71
2022/01/21 15:06:47;;;;;;;0.20;0.20;;;;;;;;;;5144071;27;20274;-70
2022/01/21 15:09:15;;;;;;;0.20;0.20;;;;;;;;;;5144068;27;20253;-71
2022/01/21 15:11:58;;;;;;;0.20;0.20;;;;;;;;;;5144241;27;20492;-72
2022/01/21 15:14:26;;;;;;;0.20;0.20;;;;;;;;;;5135800;27;20282;-71
2022/01/21 15:16:53;;;;;;;0.20;0.20;;;;;;;;;;5123167;28;20263;-72
2022/01/21 15:19:20;;;;;;;0.20;0.20;;;;;;;;;;5131933;28;20461;-71
2022/01/21 15:21:50;;;;;;;0.20;0.20;;;;;;;;;;5125318;27;20203;-71
2022/01/21 15:24:16;;;;;;;0.20;0.20;;;;;;;;;;5123618;28;20549;-71
2022/01/21 15:26:43;;;;;;;0.17;0.17;;;;;;;;;;5123211;28;20202;-71